WetterOnline ( https://www.wetteronline.de )

Wetter aktuell Prag

Aktuelles Wetter: Prag-Kbely (287m)

6-stündlich | Neueste Meldungen
Ortszeit Temperatur Wetter
Do, 22.10. 2:00 8.6° C leicht bewölkt
Mi, 21.10. 20:00 9.2° C leicht bewölkt
Mi, 21.10. 14:00 11.3° C wolkig
Mi, 21.10. 8:00 5.2° C leicht bewölkt
Mi, 21.10. 2:00 7.6° C leicht bewölkt
Di, 20.10. 20:00 7.7° C leicht bewölkt
Di, 20.10. 14:00 11.7° C leicht bewölkt
Di, 20.10. 8:00 3.6° C bewölkt
Ortszeit Temperatur Wetter
Do, 22.10. 2:00 8.6° C leicht bewölkt
Do, 22.10. 1:30 9° C -
Do, 22.10. 1:00 8.1° C wolkig
Do, 22.10. 0:30 9° C -
Do, 22.10. 0:00 8.3° C wolkig
Mi, 21.10. 23:30 9° C -
Mi, 21.10. 23:00 9.0° C leicht bewölkt
Mi, 21.10. 22:30 9° C -
Ortszeit Relative Feuchte Sichtweite
Do, 22.10. 2:00 86% 20 km
Mi, 21.10. 20:00 89% 20 km
Mi, 21.10. 14:00 71% 12 km
Mi, 21.10. 8:00 90% 10 km
Mi, 21.10. 2:00 87% 10 km
Di, 20.10. 20:00 81% 20 km
Di, 20.10. 14:00 63% 20 km
Di, 20.10. 8:00 94% 7 km
Ortszeit Relative Feuchte Sichtweite
Do, 22.10. 2:00 86% 20 km
Do, 22.10. 1:30 81% >10 km
Do, 22.10. 1:00 88% 20 km
Do, 22.10. 0:30 81% >10 km
Do, 22.10. 0:00 87% 20 km
Mi, 21.10. 23:30 81% >10 km
Mi, 21.10. 23:00 84% 20 km
Mi, 21.10. 22:30 87% >10 km
Ortszeit Niederschlagsmenge Niederschlagsart
Do, 22.10. 2:00 0.0 l/m2 in 6 Std. -
Mi, 21.10. 20:00 0.0 l/m2 in 12 Std. -
Mi, 21.10. 14:00 0.0 l/m2 in 6 Std. -
Mi, 21.10. 8:00 0.0 l/m2 in 12 Std. -
Mi, 21.10. 2:00 0.0 l/m2 in 6 Std. -
Di, 20.10. 20:00 0.0 l/m2 in 12 Std. -
Di, 20.10. 14:00 0.0 l/m2 in 6 Std. -
Di, 20.10. 8:00 0.0 l/m2 in 12 Std. -
Ortszeit Niederschlagsmenge Niederschlagsart
Do, 22.10. 2:00 0.0 l/m2 in 1 Std. -
Do, 22.10. 1:30 keine Meldung -
Do, 22.10. 1:00 0.0 l/m2 in 1 Std. -
Do, 22.10. 0:30 keine Meldung -
Do, 22.10. 0:00 0.0 l/m2 in 1 Std. -
Mi, 21.10. 23:30 keine Meldung -
Mi, 21.10. 23:00 0.0 l/m2 in 1 Std. -
Mi, 21.10. 22:30 keine Meldung -
Ortszeit Stärke Spitze Richtung
km/h Bft. km/h Grad Sektor
Do, 22.10. 2:00 11 2 - 140° SO
Mi, 21.10. 20:00 7 2 - 140° SO
Mi, 21.10. 14:00 11 2 - 130° SO
Mi, 21.10. 8:00 7 2 - 80° O
Mi, 21.10. 2:00 11 2 - 100° O
Di, 20.10. 20:00 4 1 - 140° SO
Di, 20.10. 14:00 11 2 - 140° SO
Di, 20.10. 8:00 7 2 - 90° O
Ortszeit Stärke Spitze Richtung
km/h Bft. km/h Grad Sektor
Do, 22.10. 2:00 11 2 - 140° SO
Do, 22.10. 1:30 9 2 - 130° SO
Do, 22.10. 1:00 11 2 - 130° SO
Do, 22.10. 0:30 6 1 - 160° S
Do, 22.10. 0:00 7 2 - 150° SO
Mi, 21.10. 23:30 4 1 - 150° SO
Mi, 21.10. 23:00 7 2 - 150° SO
Mi, 21.10. 22:30 9 2 - 160° S
Ortszeit Untergrenze Bedeckung Gattung
total tief tief mittel hoch
Do, 22.10. 2:00 4200 m 6/8 6/8 - As -
Mi, 21.10. 20:00 5400 m 5/8 0/8 - - Ci
Mi, 21.10. 14:00 4800 m 7/8 3/8 - As Cs
Mi, 21.10. 8:00 4800 m 6/8 6/8 - Ac Ci
Mi, 21.10. 2:00 4200 m 6/8 3/8 - Ns Ci
Di, 20.10. 20:00 6900 m 4/8 0/8 - - Cs
Di, 20.10. 14:00 810 m 6/8 6/8 Sc - Cs
Di, 20.10. 8:00 390 m 7/8 7/8 Sc - -
Ortszeit Bedeckungsgrad in Achtel und Wolkenuntergrenze
Do, 22.10. 2:00 6(4200m)
Do, 22.10. 1:30 keine Wolken(unter 1500 m)
Do, 22.10. 1:00 7(4500m)
Do, 22.10. 0:30 keine Wolken(unter 1500 m)
Do, 22.10. 0:00 7(4800m)
Mi, 21.10. 23:30 keine Wolken(unter 1500 m)
Mi, 21.10. 23:00 6(4800m)
Mi, 21.10. 22:30 keine Wolken(unter 1500 m)
Ortszeit Luftdruck NN (hPa) Tendenz (hPa in 3 Std.)
Do, 22.10. 2:00 1017 + 0,4
Mi, 21.10. 20:00 1015 - 0,2
Mi, 21.10. 14:00 1015 - 0,4
Mi, 21.10. 8:00 1016 - 0,7
Mi, 21.10. 2:00 1017 - 1,4
Di, 20.10. 20:00 1018 - 0,4
Di, 20.10. 14:00 1020 - 0,7
Di, 20.10. 8:00 1022 - 0,6
Ortszeit Luftdruck NN (hPa) Tendenz (hPa in 3 Std.)
Do, 22.10. 2:00 1017 + 0,4
Do, 22.10. 1:30 1016 keine Meldung
Do, 22.10. 1:00 1017 + 0,9
Do, 22.10. 0:30 1016 keine Meldung
Do, 22.10. 0:00 1017 + 1,3
Mi, 21.10. 23:30 1016 keine Meldung
Mi, 21.10. 23:00 1017 + 1,6
Mi, 21.10. 22:30 1015 keine Meldung
Ortszeit Schneehöhe (cm)
Do, 22.10. 2:00 -
Mi, 21.10. 20:00 -
Mi, 21.10. 14:00 -
Mi, 21.10. 8:00 -
Mi, 21.10. 2:00 -
Di, 20.10. 20:00 -
Di, 20.10. 14:00 -
Di, 20.10. 8:00 -
Ortszeit Schneehöhe (cm)
Do, 22.10. 2:00 -
Do, 22.10. 1:30 -
Do, 22.10. 1:00 -
Do, 22.10. 0:30 -
Do, 22.10. 0:00 -
Mi, 21.10. 23:30 -
Mi, 21.10. 23:00 -
Mi, 21.10. 22:30 -
Link zu dieser Seite / Seite empfehlen

Das Wetter in ...